createdAt,value
2022-08-17T00:03:13.671Z,8.70
2022-08-17T00:08:09.014Z,8.98
2022-08-17T00:13:05.978Z,8.35
2022-08-17T00:17:59.269Z,8.57
2022-08-17T00:23:06.899Z,8.38
2022-08-17T00:28:00.719Z,7.72
2022-08-17T00:33:23.254Z,7.78
2022-08-17T00:38:10.430Z,6.25
2022-08-17T00:43:22.175Z,5.85
2022-08-17T00:48:29.501Z,7.15
2022-08-17T00:53:25.048Z,5.70
2022-08-17T00:58:19.664Z,5.70
2022-08-17T01:03:31.028Z,6.03
2022-08-17T01:08:27.574Z,5.22
2022-08-17T01:13:24.413Z,5.88
2022-08-17T01:18:18.615Z,5.43
2022-08-17T01:23:12.020Z,5.03
2022-08-17T01:28:11.703Z,5.38
2022-08-17T01:33:25.789Z,5.70
2022-08-17T01:38:26.494Z,5.00
2022-08-17T01:43:24.015Z,5.50
2022-08-17T01:48:20.731Z,4.75
2022-08-17T01:53:19.508Z,5.55
2022-08-17T01:58:18.676Z,4.60
2022-08-17T02:03:13.068Z,5.85
2022-08-17T02:08:08.341Z,5.20
2022-08-17T02:13:14.415Z,5.65
2022-08-17T02:18:09.494Z,5.93
2022-08-17T02:23:03.923Z,5.90
2022-08-17T02:28:00.790Z,5.47
2022-08-17T02:32:54.937Z,6.35
2022-08-17T02:37:48.986Z,6.18
2022-08-17T02:42:49.585Z,5.97
2022-08-17T02:47:43.353Z,6.60
2022-08-17T07:08:20.636Z,12.30
2022-08-17T07:13:30.267Z,13.32
2022-08-17T07:18:27.815Z,12.43
2022-08-17T07:23:39.572Z,13.07
2022-08-17T07:28:33.785Z,15.63
2022-08-17T07:33:31.830Z,16.02
2022-08-17T07:38:33.140Z,14.98
2022-08-17T07:43:32.797Z,17.75
2022-08-17T07:48:27.427Z,18.90
2022-08-17T07:53:24.755Z,18.55
2022-08-17T07:58:19.870Z,14.00
2022-08-17T08:03:28.439Z,17.17
2022-08-17T08:10:06.256Z,17.15
2022-08-17T08:15:06.442Z,18.13
2022-08-17T08:20:01.472Z,18.95
2022-08-17T08:25:25.387Z,17.88
2022-08-17T08:30:24.374Z,16.92
2022-08-17T08:35:33.592Z,18.30
2022-08-17T08:41:01.150Z,17.75
2022-08-17T08:46:29.239Z,15.90
2022-08-17T08:51:40.961Z,15.95
2022-08-17T08:56:46.325Z,14.43
2022-08-17T09:02:17.592Z,11.65
2022-08-17T09:07:40.507Z,9.90
2022-08-17T09:18:59.243Z,12.87
2022-08-17T09:23:35.227Z,12.73
2022-08-17T09:28:34.521Z,13.00
2022-08-17T09:33:28.572Z,13.23
2022-08-17T09:38:35.131Z,12.00
2022-08-17T09:43:58.070Z,10.40
2022-08-17T09:54:35.212Z,9.55
2022-08-17T09:59:47.323Z,10.20
2022-08-17T10:05:09.814Z,10.43
2022-08-17T10:10:30.525Z,9.82
2022-08-17T10:15:42.481Z,10.10
2022-08-17T10:20:48.118Z,10.13
2022-08-17T10:26:09.498Z,8.52
2022-08-17T10:31:33.554Z,8.75
2022-08-17T10:36:47.220Z,8.85
2022-08-17T10:41:48.152Z,9.15
2022-08-17T10:46:53.203Z,9.23
2022-08-17T10:51:49.147Z,8.32
2022-08-17T10:56:46.874Z,8.75
2022-08-17T11:01:42.565Z,9.45
2022-08-17T11:06:43.318Z,8.98
2022-08-17T11:11:48.375Z,9.85
2022-08-17T11:17:02.837Z,8.32
2022-08-17T11:22:15.734Z,7.80
2022-08-17T11:27:35.710Z,8.20
2022-08-17T11:32:32.500Z,7.93
2022-08-17T11:37:47.636Z,8.07
2022-08-17T11:43:08.025Z,7.78
2022-08-17T11:48:55.272Z,8.90
2022-08-17T11:53:48.669Z,8.85
2022-08-17T11:58:42.936Z,7.72
2022-08-17T12:03:37.331Z,6.60
2022-08-17T12:08:33.082Z,6.53
2022-08-17T12:13:30.474Z,6.40
2022-08-17T12:18:58.549Z,7.13
2022-08-17T12:24:06.506Z,7.43
2022-08-17T12:29:04.085Z,6.95
2022-08-17T12:34:01.398Z,6.75
2022-08-17T12:39:13.038Z,6.28
2022-08-17T12:44:21.759Z,6.45
2022-08-17T12:49:52.189Z,6.78
2022-08-17T12:54:56.697Z,6.53
2022-08-17T12:59:56.340Z,6.28
2022-08-17T13:04:50.713Z,7.32
2022-08-17T13:09:52.468Z,7.10
2022-08-17T13:14:53.748Z,6.70
2022-08-17T13:19:51.007Z,6.55
2022-08-17T13:24:57.011Z,6.47
2022-08-17T13:29:54.501Z,5.82
2022-08-17T13:35:14.381Z,5.90
2022-08-17T13:40:10.057Z,6.00
2022-08-17T13:45:35.492Z,5.75
2022-08-17T13:50:21.520Z,6.82
2022-08-17T13:55:21.531Z,5.55
2022-08-17T14:00:20.284Z,5.65
2022-08-17T14:05:13.909Z,5.40
2022-08-17T14:10:15.200Z,5.60
2022-08-17T14:15:10.431Z,5.20
2022-08-17T14:20:06.326Z,5.18
2022-08-17T14:25:02.128Z,5.95
2022-08-17T14:29:58.876Z,5.60
2022-08-17T14:34:53.431Z,4.88
2022-08-17T14:39:47.808Z,5.65
2022-08-17T14:44:41.976Z,5.03
2022-08-17T14:49:36.791Z,6.07
2022-08-17T14:54:33.933Z,6.32
2022-08-17T14:59:28.764Z,6.30
2022-08-17T15:04:23.444Z,6.55
2022-08-17T15:09:18.676Z,4.72
2022-08-17T15:14:12.512Z,5.65
2022-08-17T15:19:07.507Z,6.38
2022-08-17T15:24:02.424Z,5.72
2022-08-17T15:28:57.019Z,5.72
2022-08-17T15:33:51.383Z,5.97
2022-08-17T15:38:44.700Z,5.50
2022-08-17T15:43:38.574Z,5.28
2022-08-17T15:48:42.932Z,6.00
2022-08-17T15:53:37.016Z,5.90
2022-08-17T15:58:33.264Z,5.38
2022-08-17T16:03:56.039Z,5.47
2022-08-17T16:08:44.303Z,5.57
2022-08-17T16:13:39.670Z,5.53
2022-08-17T16:18:34.012Z,12.68
2022-08-17T16:23:28.290Z,7.07
2022-08-17T16:28:35.656Z,6.57
2022-08-17T16:33:30.222Z,7.05
2022-08-17T16:38:23.928Z,5.68
2022-08-17T16:43:18.460Z,5.63
2022-08-17T16:48:14.137Z,6.20
2022-08-17T16:53:17.401Z,6.28
2022-08-17T16:58:11.447Z,6.53
2022-08-17T17:03:19.517Z,6.75
2022-08-17T17:08:47.573Z,6.07
2022-08-17T17:14:02.112Z,5.50
2022-08-17T17:19:01.404Z,4.47
2022-08-17T17:24:00.601Z,3.85
2022-08-17T17:29:01.396Z,2.50
2022-08-17T17:34:04.855Z,2.17
2022-08-17T17:39:13.094Z,2.35
2022-08-17T17:44:19.849Z,2.50
2022-08-17T17:49:14.369Z,3.03
2022-08-17T17:54:32.882Z,2.63
2022-08-17T17:59:49.205Z,2.67
2022-08-17T18:04:59.418Z,3.30
2022-08-17T18:10:29.782Z,2.83
2022-08-17T18:15:27.473Z,2.65
2022-08-17T18:20:22.360Z,3.17
2022-08-17T18:26:00.342Z,3.08
2022-08-17T18:31:10.917Z,2.85
2022-08-17T18:36:06.133Z,3.53
2022-08-17T18:41:16.378Z,3.28
2022-08-17T18:46:38.112Z,3.03
2022-08-17T18:51:40.260Z,3.38
2022-08-17T18:56:37.780Z,3.80
2022-08-17T19:02:15.299Z,3.58
2022-08-17T19:07:17.908Z,3.60
2022-08-17T19:12:26.967Z,3.88
2022-08-17T19:17:38.805Z,3.28
2022-08-17T19:22:46.286Z,4.10
2022-08-17T19:27:57.442Z,3.67
2022-08-17T19:32:53.946Z,3.37
2022-08-17T19:37:59.155Z,3.15
2022-08-17T19:42:55.996Z,3.20
2022-08-17T19:48:13.116Z,3.22
2022-08-17T19:53:21.411Z,3.40
2022-08-17T19:58:37.300Z,3.85
2022-08-17T20:03:53.016Z,3.88
2022-08-17T20:09:15.485Z,4.18
2022-08-17T20:14:35.704Z,3.65
2022-08-17T20:19:39.925Z,3.13
2022-08-17T20:24:40.641Z,3.60
2022-08-17T20:29:37.295Z,3.70
2022-08-17T20:34:40.335Z,4.03
2022-08-17T20:39:39.021Z,3.60
2022-08-17T20:44:36.123Z,3.38
2022-08-17T20:49:56.099Z,3.47
2022-08-17T20:54:54.458Z,3.50
2022-08-17T20:59:47.604Z,4.57
2022-08-17T21:04:44.408Z,3.90
2022-08-17T21:09:38.804Z,4.85
2022-08-17T21:14:56.448Z,4.32
2022-08-17T21:20:12.144Z,5.30
2022-08-17T21:25:21.434Z,4.13
2022-08-17T21:30:44.804Z,4.72
2022-08-17T21:35:58.925Z,5.13
2022-08-17T21:40:53.812Z,4.45
2022-08-17T21:46:05.828Z,5.03
2022-08-17T21:51:13.881Z,4.70
2022-08-17T21:56:08.888Z,6.60
2022-08-17T22:01:22.985Z,5.63
2022-08-17T22:06:42.041Z,6.13
2022-08-17T22:11:56.500Z,6.18
2022-08-17T22:17:10.292Z,6.10
2022-08-17T22:22:06.003Z,6.18
2022-08-17T22:27:01.874Z,6.30
2022-08-17T22:32:03.416Z,5.75
2022-08-17T22:37:21.120Z,5.38
2022-08-17T22:42:22.361Z,5.00
2022-08-17T22:47:15.418Z,4.28
2022-08-17T22:52:22.532Z,4.55
2022-08-17T22:57:34.653Z,4.15
2022-08-17T23:02:32.876Z,4.60
2022-08-17T23:07:30.992Z,4.13
2022-08-17T23:12:27.225Z,4.32
2022-08-17T23:17:21.518Z,4.90
2022-08-17T23:22:15.390Z,5.00
2022-08-17T23:27:09.268Z,5.60
2022-08-17T23:32:05.044Z,5.47
2022-08-17T23:36:59.509Z,5.53
2022-08-17T23:41:54.096Z,6.30
2022-08-17T23:46:48.502Z,6.68
2022-08-17T23:51:46.618Z,6.53
2022-08-17T23:56:47.575Z,7.10
